sensor_id;sensor_type;location;lat;lon;timestamp;pressure;altitude;pressure_sealevel;temperature;humidity
8523;BME280;4299;42.202;24.736;2023-02-20T00:01:58;99726.44;;;14.02;53.52
8523;BME280;4299;42.202;24.736;2023-02-20T00:04:25;99728.75;;;13.94;54.12
8523;BME280;4299;42.202;24.736;2023-02-20T00:06:51;99735.72;;;13.82;54.67
8523;BME280;4299;42.202;24.736;2023-02-20T00:09:18;99737.00;;;13.77;54.82
8523;BME280;4299;42.202;24.736;2023-02-20T00:11:45;99738.34;;;13.70;55.41
8523;BME280;4299;42.202;24.736;2023-02-20T00:14:12;99741.47;;;13.76;55.36
8523;BME280;4299;42.202;24.736;2023-02-20T00:16:40;99744.03;;;13.78;54.72
8523;BME280;4299;42.202;24.736;2023-02-20T00:19:07;99751.72;;;13.82;54.58
8523;BME280;4299;42.202;24.736;2023-02-20T00:21:33;99747.59;;;13.91;53.85
8523;BME280;4299;42.202;24.736;2023-02-20T00:24:00;99755.00;;;14.00;53.32
8523;BME280;4299;42.202;24.736;2023-02-20T00:26:27;99760.88;;;14.05;53.43
8523;BME280;4299;42.202;24.736;2023-02-20T00:28:53;99754.59;;;14.06;52.61
8523;BME280;4299;42.202;24.736;2023-02-20T00:31:20;99760.13;;;14.03;53.08
8523;BME280;4299;42.202;24.736;2023-02-20T00:33:48;99747.97;;;13.99;53.10
8523;BME280;4299;42.202;24.736;2023-02-20T00:36:16;99746.25;;;13.98;53.22
8523;BME280;4299;42.202;24.736;2023-02-20T00:38:43;99748.56;;;13.90;53.73
8523;BME280;4299;42.202;24.736;2023-02-20T00:41:10;99752.38;;;13.86;53.95
8523;BME280;4299;42.202;24.736;2023-02-20T00:43:38;99745.75;;;13.79;54.08
8523;BME280;4299;42.202;24.736;2023-02-20T00:46:05;99754.88;;;13.75;54.52
8523;BME280;4299;42.202;24.736;2023-02-20T00:48:32;99752.22;;;13.75;54.47
8523;BME280;4299;42.202;24.736;2023-02-20T00:51:00;99755.00;;;13.73;54.76
8523;BME280;4299;42.202;24.736;2023-02-20T00:53:27;99741.00;;;13.70;55.13
8523;BME280;4299;42.202;24.736;2023-02-20T00:55:53;99741.41;;;13.63;54.99
8523;BME280;4299;42.202;24.736;2023-02-20T00:58:20;99748.47;;;13.64;54.92
8523;BME280;4299;42.202;24.736;2023-02-20T01:00:47;99752.25;;;13.60;54.98
8523;BME280;4299;42.202;24.736;2023-02-20T01:03:13;99744.66;;;13.54;55.26
8523;BME280;4299;42.202;24.736;2023-02-20T01:05:40;99735.81;;;13.54;55.71
8523;BME280;4299;42.202;24.736;2023-02-20T01:08:08;99740.28;;;13.53;55.26
8523;BME280;4299;42.202;24.736;2023-02-20T01:10:35;99743.34;;;13.47;55.55
8523;BME280;4299;42.202;24.736;2023-02-20T01:13:02;99744.28;;;13.46;56.21
8523;BME280;4299;42.202;24.736;2023-02-20T01:15:28;99764.50;;;13.36;56.01
8523;BME280;4299;42.202;24.736;2023-02-20T01:17:55;99758.03;;;13.26;56.78
8523;BME280;4299;42.202;24.736;2023-02-20T01:20:22;99754.34;;;13.14;57.23
8523;BME280;4299;42.202;24.736;2023-02-20T01:22:48;99764.44;;;13.08;58.29
8523;BME280;4299;42.202;24.736;2023-02-20T01:25:17;99751.25;;;13.06;57.95
8523;BME280;4299;42.202;24.736;2023-02-20T01:27:43;99757.78;;;13.01;58.08
8523;BME280;4299;42.202;24.736;2023-02-20T01:30:10;99752.84;;;12.95;58.35
8523;BME280;4299;42.202;24.736;2023-02-20T01:32:37;99758.56;;;12.88;58.72
8523;BME280;4299;42.202;24.736;2023-02-20T01:35:04;99759.50;;;12.87;58.58
8523;BME280;4299;42.202;24.736;2023-02-20T01:37:31;99768.16;;;12.77;59.64
8523;BME280;4299;42.202;24.736;2023-02-20T01:39:57;99769.25;;;12.73;59.72
8523;BME280;4299;42.202;24.736;2023-02-20T01:42:30;99773.94;;;12.69;59.91
8523;BME280;4299;42.202;24.736;2023-02-20T01:45:16;99770.31;;;12.70;59.80
8523;BME280;4299;42.202;24.736;2023-02-20T01:47:43;99771.03;;;12.58;60.45
8523;BME280;4299;42.202;24.736;2023-02-20T01:50:11;99771.25;;;12.55;61.11
8523;BME280;4299;42.202;24.736;2023-02-20T01:52:40;99785.47;;;12.54;61.15
8523;BME280;4299;42.202;24.736;2023-02-20T01:55:11;99785.28;;;12.57;60.77
8523;BME280;4299;42.202;24.736;2023-02-20T01:57:51;99785.09;;;12.60;60.69
8523;BME280;4299;42.202;24.736;2023-02-20T02:00:20;99784.75;;;12.66;60.57
8523;BME280;4299;42.202;24.736;2023-02-20T02:02:51;99778.56;;;12.66;60.64
8523;BME280;4299;42.202;24.736;2023-02-20T02:05:19;99790.25;;;12.63;60.46
8523;BME280;4299;42.202;24.736;2023-02-20T02:07:48;99788.06;;;12.56;61.18
8523;BME280;4299;42.202;24.736;2023-02-20T02:10:16;99796.78;;;12.58;61.60
8523;BME280;4299;42.202;24.736;2023-02-20T02:12:48;99787.00;;;12.58;61.56
8523;BME280;4299;42.202;24.736;2023-02-20T02:15:18;99791.94;;;12.64;61.33
8523;BME280;4299;42.202;24.736;2023-02-20T02:18:05;99797.47;;;12.61;61.83
8523;BME280;4299;42.202;24.736;2023-02-20T02:20:58;99790.31;;;12.47;62.54
8523;BME280;4299;42.202;24.736;2023-02-20T02:27:00;99815.56;;;12.25;64.31
8523;BME280;4299;42.202;24.736;2023-02-20T02:29:44;99807.19;;;12.17;65.45
8523;BME280;4299;42.202;24.736;2023-02-20T02:32:46;99822.97;;;12.04;67.00
8523;BME280;4299;42.202;24.736;2023-02-20T02:35:30;99828.09;;;11.91;68.53
8523;BME280;4299;42.202;24.736;2023-02-20T02:38:15;99835.66;;;11.83;69.78
8523;BME280;4299;42.202;24.736;2023-02-20T02:40:50;99829.56;;;11.81;71.24
8523;BME280;4299;42.202;24.736;2023-02-20T02:43:24;99833.94;;;11.82;71.61
8523;BME280;4299;42.202;24.736;2023-02-20T02:45:54;99837.69;;;11.78;72.31
8523;BME280;4299;42.202;24.736;2023-02-20T02:48:25;99832.56;;;11.75;72.90
8523;BME280;4299;42.202;24.736;2023-02-20T02:50:56;99837.88;;;11.75;73.97
8523;BME280;4299;42.202;24.736;2023-02-20T02:53:26;99847.47;;;11.78;74.79
8523;BME280;4299;42.202;24.736;2023-02-20T02:55:52;99841.59;;;11.71;75.69
8523;BME280;4299;42.202;24.736;2023-02-20T02:58:19;99848.16;;;11.81;75.23
8523;BME280;4299;42.202;24.736;2023-02-20T03:00:49;99847.31;;;11.81;75.87
8523;BME280;4299;42.202;24.736;2023-02-20T03:03:20;99854.16;;;11.85;75.77
8523;BME280;4299;42.202;24.736;2023-02-20T03:05:53;99848.84;;;11.85;76.11
8523;BME280;4299;42.202;24.736;2023-02-20T03:08:27;99851.25;;;11.89;75.93
8523;BME280;4299;42.202;24.736;2023-02-20T03:11:02;99860.41;;;11.99;75.07
8523;BME280;4299;42.202;24.736;2023-02-20T03:13:35;99867.88;;;12.08;74.57
8523;BME280;4299;42.202;24.736;2023-02-20T03:16:26;99853.66;;;12.09;74.55
8523;BME280;4299;42.202;24.736;2023-02-20T03:18:59;99847.63;;;12.22;73.62
8523;BME280;4299;42.202;24.736;2023-02-20T03:21:27;99864.19;;;12.27;72.96
8523;BME280;4299;42.202;24.736;2023-02-20T03:23:59;99861.34;;;12.30;73.14
8523;BME280;4299;42.202;24.736;2023-02-20T03:26:30;99867.44;;;12.32;73.20
8523;BME280;4299;42.202;24.736;2023-02-20T03:29:03;99862.91;;;12.34;72.71
8523;BME280;4299;42.202;24.736;2023-02-20T03:31:37;99868.03;;;12.37;72.47
8523;BME280;4299;42.202;24.736;2023-02-20T03:34:09;99863.47;;;12.39;72.19
8523;BME280;4299;42.202;24.736;2023-02-20T03:36:59;99878.06;;;12.32;72.40
8523;BME280;4299;42.202;24.736;2023-02-20T03:39:50;99890.94;;;12.24;73.51
8523;BME280;4299;42.202;24.736;2023-02-20T03:42:39;99903.00;;;12.14;73.94
8523;BME280;4299;42.202;24.736;2023-02-20T03:45:27;99898.13;;;12.06;75.01
8523;BME280;4299;42.202;24.736;2023-02-20T03:47:59;99907.66;;;11.94;75.97
8523;BME280;4299;42.202;24.736;2023-02-20T03:50:28;99910.03;;;11.83;77.61
8523;BME280;4299;42.202;24.736;2023-02-20T03:52:54;99915.84;;;11.74;79.12
8523;BME280;4299;42.202;24.736;2023-02-20T03:55:23;99909.59;;;11.58;80.80
8523;BME280;4299;42.202;24.736;2023-02-20T03:57:53;99913.19;;;11.57;82.33
8523;BME280;4299;42.202;24.736;2023-02-20T04:00:24;99910.09;;;11.49;83.29
8523;BME280;4299;42.202;24.736;2023-02-20T04:02:56;99926.88;;;11.49;84.04
8523;BME280;4299;42.202;24.736;2023-02-20T04:05:26;99924.47;;;11.45;84.76
8523;BME280;4299;42.202;24.736;2023-02-20T04:07:58;99931.50;;;11.46;85.47
8523;BME280;4299;42.202;24.736;2023-02-20T04:10:30;99928.06;;;11.44;86.19
8523;BME280;4299;42.202;24.736;2023-02-20T04:13:00;99931.66;;;11.43;86.51
8523;BME280;4299;42.202;24.736;2023-02-20T04:15:28;99924.63;;;11.42;87.31
8523;BME280;4299;42.202;24.736;2023-02-20T04:18:01;99914.00;;;11.42;87.59
8523;BME280;4299;42.202;24.736;2023-02-20T04:20:29;99914.00;;;11.42;87.54
8523;BME280;4299;42.202;24.736;2023-02-20T04:23:02;99920.69;;;11.49;86.90
8523;BME280;4299;42.202;24.736;2023-02-20T04:25:36;99919.50;;;11.39;86.92
8523;BME280;4299;42.202;24.736;2023-02-20T04:28:05;99921.28;;;11.21;88.16
8523;BME280;4299;42.202;24.736;2023-02-20T04:30:32;99913.59;;;11.16;89.97
8523;BME280;4299;42.202;24.736;2023-02-20T04:32:59;99911.69;;;11.18;90.07
8523;BME280;4299;42.202;24.736;2023-02-20T04:35:26;99907.97;;;11.22;89.62
8523;BME280;4299;42.202;24.736;2023-02-20T04:37:53;99906.22;;;11.21;88.95
8523;BME280;4299;42.202;24.736;2023-02-20T04:40:23;99913.41;;;11.19;88.43
8523;BME280;4299;42.202;24.736;2023-02-20T04:42:51;99910.00;;;11.17;87.62
8523;BME280;4299;42.202;24.736;2023-02-20T04:45:17;99912.00;;;11.12;87.08
8523;BME280;4299;42.202;24.736;2023-02-20T04:47:44;99915.59;;;11.11;86.92
8523;BME280;4299;42.202;24.736;2023-02-20T04:50:15;99911.16;;;11.12;86.43
8523;BME280;4299;42.202;24.736;2023-02-20T04:52:44;99917.31;;;11.12;85.00
8523;BME280;4299;42.202;24.736;2023-02-20T04:55:11;99920.44;;;11.20;83.65
8523;BME280;4299;42.202;24.736;2023-02-20T04:57:37;99926.75;;;11.18;84.47
8523;BME280;4299;42.202;24.736;2023-02-20T05:00:07;99934.63;;;11.19;83.48
8523;BME280;4299;42.202;24.736;2023-02-20T05:02:36;99929.50;;;11.16;82.45
8523;BME280;4299;42.202;24.736;2023-02-20T05:05:04;99928.25;;;11.23;80.70
8523;BME280;4299;42.202;24.736;2023-02-20T05:07:31;99929.88;;;11.26;78.65
8523;BME280;4299;42.202;24.736;2023-02-20T05:09:57;99932.44;;;11.27;77.95
8523;BME280;4299;42.202;24.736;2023-02-20T05:12:24;99939.47;;;11.28;77.81
8523;BME280;4299;42.202;24.736;2023-02-20T05:14:51;99942.19;;;11.27;78.05
8523;BME280;4299;42.202;24.736;2023-02-20T05:17:19;99932.78;;;11.21;78.64
8523;BME280;4299;42.202;24.736;2023-02-20T05:19:45;99938.41;;;11.15;79.11
8523;BME280;4299;42.202;24.736;2023-02-20T05:22:12;99935.81;;;11.14;79.99
8523;BME280;4299;42.202;24.736;2023-02-20T05:24:44;99941.97;;;11.14;79.74
8523;BME280;4299;42.202;24.736;2023-02-20T05:27:12;99949.16;;;11.12;79.54
8523;BME280;4299;42.202;24.736;2023-02-20T05:29:43;99969.78;;;11.24;78.33
8523;BME280;4299;42.202;24.736;2023-02-20T05:32:10;99978.44;;;11.28;77.87
8523;BME280;4299;42.202;24.736;2023-02-20T05:34:38;99985.22;;;11.33;77.42
8523;BME280;4299;42.202;24.736;2023-02-20T05:37:04;99993.34;;;11.30;76.85
8523;BME280;4299;42.202;24.736;2023-02-20T05:39:31;99994.28;;;11.29;77.13
8523;BME280;4299;42.202;24.736;2023-02-20T05:41:58;99999.41;;;11.32;76.60
8523;BME280;4299;42.202;24.736;2023-02-20T05:44:24;100009.41;;;11.27;77.49
8523;BME280;4299;42.202;24.736;2023-02-20T05:46:51;100001.31;;;11.30;77.11
8523;BME280;4299;42.202;24.736;2023-02-20T05:49:20;100001.13;;;11.33;76.63
8523;BME280;4299;42.202;24.736;2023-02-20T05:51:48;100014.88;;;11.42;76.28
8523;BME280;4299;42.202;24.736;2023-02-20T05:54:15;100021.22;;;11.39;76.31
8523;BME280;4299;42.202;24.736;2023-02-20T05:56:43;100016.75;;;11.40;77.45
8523;BME280;4299;42.202;24.736;2023-02-20T05:59:10;100015.91;;;11.39;77.60
8523;BME280;4299;42.202;24.736;2023-02-20T06:01:37;100023.31;;;11.50;76.09
8523;BME280;4299;42.202;24.736;2023-02-20T06:04:04;100027.53;;;11.54;74.81
8523;BME280;4299;42.202;24.736;2023-02-20T06:06:31;100033.47;;;11.59;75.10
8523;BME280;4299;42.202;24.736;2023-02-20T06:09:02;100001.44;;;11.62;74.08
8523;BME280;4299;42.202;24.736;2023-02-20T06:11:32;100053.38;;;11.67;72.23
8523;BME280;4299;42.202;24.736;2023-02-20T06:13:58;100047.53;;;11.78;70.75
8523;BME280;4299;42.202;24.736;2023-02-20T06:16:27;100047.84;;;11.89;68.82
8523;BME280;4299;42.202;24.736;2023-02-20T06:18:55;100050.09;;;11.97;67.55
8523;BME280;4299;42.202;24.736;2023-02-20T06:21:24;100061.25;;;12.03;65.42
8523;BME280;4299;42.202;24.736;2023-02-20T06:23:53;100064.97;;;12.17;63.64
8523;BME280;4299;42.202;24.736;2023-02-20T06:26:22;100077.59;;;12.29;61.71
8523;BME280;4299;42.202;24.736;2023-02-20T06:28:49;100070.06;;;12.37;60.65
8523;BME280;4299;42.202;24.736;2023-02-20T06:31:20;100082.63;;;12.51;59.46
8523;BME280;4299;42.202;24.736;2023-02-20T06:33:48;100087.72;;;12.55;59.75
8523;BME280;4299;42.202;24.736;2023-02-20T06:36:19;100095.34;;;12.61;58.52
8523;BME280;4299;42.202;24.736;2023-02-20T06:38:46;100094.06;;;12.68;58.10
8523;BME280;4299;42.202;24.736;2023-02-20T06:41:16;100091.84;;;12.76;58.11
8523;BME280;4299;42.202;24.736;2023-02-20T06:43:44;100093.38;;;12.80;57.22
8523;BME280;4299;42.202;24.736;2023-02-20T06:46:10;100078.19;;;12.82;57.49
8523;BME280;4299;42.202;24.736;2023-02-20T06:48:42;100076.13;;;12.87;56.67
8523;BME280;4299;42.202;24.736;2023-02-20T06:51:09;100068.91;;;12.90;56.81
8523;BME280;4299;42.202;24.736;2023-02-20T06:53:36;100078.19;;;12.82;56.36
8523;BME280;4299;42.202;24.736;2023-02-20T06:56:07;100069.69;;;12.92;55.63
8523;BME280;4299;42.202;24.736;2023-02-20T06:58:35;100072.00;;;12.98;56.16
8523;BME280;4299;42.202;24.736;2023-02-20T07:01:03;100061.38;;;12.98;55.39
8523;BME280;4299;42.202;24.736;2023-02-20T07:03:30;100066.19;;;13.07;55.53
8523;BME280;4299;42.202;24.736;2023-02-20T07:05:56;100057.06;;;13.11;55.56
8523;BME280;4299;42.202;24.736;2023-02-20T07:08:23;100046.09;;;13.17;54.46
8523;BME280;4299;42.202;24.736;2023-02-20T07:10:50;100048.75;;;13.17;53.31
8523;BME280;4299;42.202;24.736;2023-02-20T07:13:19;100045.06;;;13.19;53.24
8523;BME280;4299;42.202;24.736;2023-02-20T07:15:46;100039.28;;;13.27;53.46
8523;BME280;4299;42.202;24.736;2023-02-20T07:18:14;100042.00;;;13.41;51.83
8523;BME280;4299;42.202;24.736;2023-02-20T07:20:41;100040.69;;;13.48;51.91
8523;BME280;4299;42.202;24.736;2023-02-20T07:23:08;100040.53;;;13.51;51.37
8523;BME280;4299;42.202;24.736;2023-02-20T07:25:35;100042.69;;;13.59;51.51
8523;BME280;4299;42.202;24.736;2023-02-20T07:28:02;100022.56;;;13.69;51.10
8523;BME280;4299;42.202;24.736;2023-02-20T07:30:29;100023.03;;;13.76;49.07
8523;BME280;4299;42.202;24.736;2023-02-20T07:32:55;100024.94;;;13.74;49.26
8523;BME280;4299;42.202;24.736;2023-02-20T07:35:23;100038.84;;;13.79;49.58
8523;BME280;4299;42.202;24.736;2023-02-20T07:37:50;100050.53;;;13.76;48.22
8523;BME280;4299;42.202;24.736;2023-02-20T07:40:17;100058.47;;;13.78;47.65
8523;BME280;4299;42.202;24.736;2023-02-20T07:42:44;100056.56;;;13.80;47.47
8523;BME280;4299;42.202;24.736;2023-02-20T07:45:11;100061.53;;;13.86;47.25
8523;BME280;4299;42.202;24.736;2023-02-20T07:47:37;100052.75;;;13.84;46.51
8523;BME280;4299;42.202;24.736;2023-02-20T07:50:04;100074.00;;;13.85;46.20
8523;BME280;4299;42.202;24.736;2023-02-20T07:52:32;100053.06;;;13.93;45.51
8523;BME280;4299;42.202;24.736;2023-02-20T07:54:59;100059.03;;;13.97;45.96
8523;BME280;4299;42.202;24.736;2023-02-20T07:57:33;100063.28;;;14.15;45.47
8523;BME280;4299;42.202;24.736;2023-02-20T08:00:00;100008.97;;;14.30;45.02
8523;BME280;4299;42.202;24.736;2023-02-20T08:02:27;100078.31;;;14.30;45.38
8523;BME280;4299;42.202;24.736;2023-02-20T08:04:53;100061.72;;;14.25;44.98
8523;BME280;4299;42.202;24.736;2023-02-20T08:07:20;100060.41;;;14.32;44.80
8523;BME280;4299;42.202;24.736;2023-02-20T08:09:48;100067.09;;;14.39;43.94
8523;BME280;4299;42.202;24.736;2023-02-20T08:12:15;100076.59;;;14.29;43.68
8523;BME280;4299;42.202;24.736;2023-02-20T08:14:42;100086.13;;;14.33;43.42
8523;BME280;4299;42.202;24.736;2023-02-20T08:17:08;100082.53;;;14.49;43.45
8523;BME280;4299;42.202;24.736;2023-02-20T08:19:36;100084.22;;;14.78;42.08
8523;BME280;4299;42.202;24.736;2023-02-20T08:22:02;100065.25;;;14.83;40.14
8523;BME280;4299;42.202;24.736;2023-02-20T08:24:29;100081.19;;;14.70;39.98
8523;BME280;4299;42.202;24.736;2023-02-20T08:26:57;100068.41;;;14.75;40.17
8523;BME280;4299;42.202;24.736;2023-02-20T08:29:24;100078.41;;;14.71;40.07
8523;BME280;4299;42.202;24.736;2023-02-20T08:31:51;100076.28;;;14.76;40.82
8523;BME280;4299;42.202;24.736;2023-02-20T08:34:17;100082.59;;;14.90;40.27
8523;BME280;4299;42.202;24.736;2023-02-20T08:36:44;100066.47;;;14.77;39.93
8523;BME280;4299;42.202;24.736;2023-02-20T08:39:11;100074.22;;;14.82;41.10
8523;BME280;4299;42.202;24.736;2023-02-20T08:41:41;100080.94;;;15.01;40.21
8523;BME280;4299;42.202;24.736;2023-02-20T08:44:10;100083.97;;;15.09;38.80
8523;BME280;4299;42.202;24.736;2023-02-20T08:46:37;100083.97;;;15.09;38.70
8523;BME280;4299;42.202;24.736;2023-02-20T08:49:03;100054.38;;;15.12;38.29
8523;BME280;4299;42.202;24.736;2023-02-20T08:51:30;100072.28;;;15.25;37.65
8523;BME280;4299;42.202;24.736;2023-02-20T08:53:57;100070.56;;;15.24;37.26
8523;BME280;4299;42.202;24.736;2023-02-20T08:56:23;100066.94;;;15.25;36.79
8523;BME280;4299;42.202;24.736;2023-02-20T08:58:50;100060.22;;;15.32;37.26
8523;BME280;4299;42.202;24.736;2023-02-20T09:01:18;100057.56;;;15.32;37.76
8523;BME280;4299;42.202;24.736;2023-02-20T09:03:44;100047.75;;;15.45;37.20
8523;BME280;4299;42.202;24.736;2023-02-20T09:06:13;100049.03;;;15.39;35.56
8523;BME280;4299;42.202;24.736;2023-02-20T09:08:39;100038.19;;;15.55;35.59
8523;BME280;4299;42.202;24.736;2023-02-20T09:11:06;100049.97;;;15.65;33.90
8523;BME280;4299;42.202;24.736;2023-02-20T09:13:40;100029.69;;;15.75;34.18
8523;BME280;4299;42.202;24.736;2023-02-20T09:16:07;100045.03;;;15.59;34.15
8523;BME280;4299;42.202;24.736;2023-02-20T09:18:35;100054.97;;;15.57;33.66
8523;BME280;4299;42.202;24.736;2023-02-20T09:21:01;100029.78;;;15.74;33.69
8523;BME280;4299;42.202;24.736;2023-02-20T09:23:28;100052.78;;;15.76;33.90
8523;BME280;4299;42.202;24.736;2023-02-20T09:25:55;100060.47;;;15.93;32.52
8523;BME280;4299;42.202;24.736;2023-02-20T09:28:21;100070.97;;;15.96;29.91
8523;BME280;4299;42.202;24.736;2023-02-20T09:30:48;100059.00;;;15.89;29.34
8523;BME280;4299;42.202;24.736;2023-02-20T09:33:19;100073.75;;;15.82;29.93
8523;BME280;4299;42.202;24.736;2023-02-20T09:35:46;100088.25;;;15.78;29.93
8523;BME280;4299;42.202;24.736;2023-02-20T09:38:13;100070.53;;;15.77;30.44
8523;BME280;4299;42.202;24.736;2023-02-20T09:40:40;100070.09;;;15.83;28.89
8523;BME280;4299;42.202;24.736;2023-02-20T09:43:09;100066.91;;;15.91;28.54
8523;BME280;4299;42.202;24.736;2023-02-20T09:45:40;100060.50;;;16.19;30.24
8523;BME280;4299;42.202;24.736;2023-02-20T09:48:11;100065.63;;;16.22;29.40
8523;BME280;4299;42.202;24.736;2023-02-20T09:50:41;100067.56;;;16.20;28.56
8523;BME280;4299;42.202;24.736;2023-02-20T09:53:14;100063.94;;;16.21;30.27
8523;BME280;4299;42.202;24.736;2023-02-20T09:55:42;100065.22;;;16.28;28.14
8523;BME280;4299;42.202;24.736;2023-02-20T09:58:11;100079.00;;;16.34;26.60
8523;BME280;4299;42.202;24.736;2023-02-20T10:00:43;100075.16;;;16.26;26.05
8523;BME280;4299;42.202;24.736;2023-02-20T10:03:14;100089.69;;;16.47;26.52
8523;BME280;4299;42.202;24.736;2023-02-20T10:05:42;100099.00;;;16.54;25.25
8523;BME280;4299;42.202;24.736;2023-02-20T10:08:17;100091.00;;;16.29;24.93
8523;BME280;4299;42.202;24.736;2023-02-20T10:10:44;100083.81;;;16.29;25.61
8523;BME280;4299;42.202;24.736;2023-02-20T10:13:17;100094.09;;;16.48;25.77
8523;BME280;4299;42.202;24.736;2023-02-20T10:15:53;100086.56;;;16.53;25.30
8523;BME280;4299;42.202;24.736;2023-02-20T10:18:26;100097.06;;;16.56;26.04
8523;BME280;4299;42.202;24.736;2023-02-20T10:20:58;100094.94;;;16.61;25.57
8523;BME280;4299;42.202;24.736;2023-02-20T10:23:37;100065.41;;;16.63;25.13
8523;BME280;4299;42.202;24.736;2023-02-20T10:26:11;100084.56;;;16.57;25.49
8523;BME280;4299;42.202;24.736;2023-02-20T10:28:39;100085.31;;;16.71;25.75
8523;BME280;4299;42.202;24.736;2023-02-20T10:31:07;100081.03;;;16.56;24.59
8523;BME280;4299;42.202;24.736;2023-02-20T10:33:41;100072.88;;;16.70;24.51
8523;BME280;4299;42.202;24.736;2023-02-20T10:36:13;100068.19;;;16.61;24.90
8523;BME280;4299;42.202;24.736;2023-02-20T10:38:45;100058.28;;;16.74;25.70
8523;BME280;4299;42.202;24.736;2023-02-20T10:41:14;100050.81;;;16.54;25.53
8523;BME280;4299;42.202;24.736;2023-02-20T10:43:47;100065.16;;;16.66;25.51
8523;BME280;4299;42.202;24.736;2023-02-20T10:46:16;100056.06;;;16.68;25.30
8523;BME280;4299;42.202;24.736;2023-02-20T10:48:44;100051.91;;;16.64;25.14
8523;BME280;4299;42.202;24.736;2023-02-20T10:51:15;100043.94;;;16.76;25.03
8523;BME280;4299;42.202;24.736;2023-02-20T10:53:47;100048.41;;;16.88;25.24
8523;BME280;4299;42.202;24.736;2023-02-20T10:56:18;100054.44;;;16.79;24.59
8523;BME280;4299;42.202;24.736;2023-02-20T10:58:51;100050.81;;;16.80;24.43
8523;BME280;4299;42.202;24.736;2023-02-20T11:01:20;100046.72;;;16.87;25.61
8523;BME280;4299;42.202;24.736;2023-02-20T11:03:52;100035.66;;;16.91;24.25
8523;BME280;4299;42.202;24.736;2023-02-20T11:06:25;100039.66;;;16.86;24.55
8523;BME280;4299;42.202;24.736;2023-02-20T11:08:56;100041.28;;;16.76;24.62
8523;BME280;4299;42.202;24.736;2023-02-20T11:11:24;100016.31;;;16.75;24.79
8523;BME280;4299;42.202;24.736;2023-02-20T11:13:52;100031.31;;;16.78;24.16
8523;BME280;4299;42.202;24.736;2023-02-20T11:16:23;100036.81;;;17.00;25.17
8523;BME280;4299;42.202;24.736;2023-02-20T11:18:52;100022.66;;;16.98;24.30
8523;BME280;4299;42.202;24.736;2023-02-20T11:21:36;100038.06;;;17.07;24.16
8523;BME280;4299;42.202;24.736;2023-02-20T11:24:29;100028.69;;;16.89;24.04
8523;BME280;4299;42.202;24.736;2023-02-20T11:26:56;100023.91;;;17.05;24.45
8523;BME280;4299;42.202;24.736;2023-02-20T11:29:23;100036.25;;;17.07;23.96
8523;BME280;4299;42.202;24.736;2023-02-20T11:31:50;100036.56;;;17.03;23.99
8523;BME280;4299;42.202;24.736;2023-02-20T11:34:19;100032.31;;;17.00;23.85
8523;BME280;4299;42.202;24.736;2023-02-20T11:36:48;100032.47;;;17.10;24.40
8523;BME280;4299;42.202;24.736;2023-02-20T11:39:19;100018.44;;;17.06;23.76
8523;BME280;4299;42.202;24.736;2023-02-20T11:41:49;100019.13;;;17.21;23.75
8523;BME280;4299;42.202;24.736;2023-02-20T11:44:21;100034.75;;;17.27;23.69
8523;BME280;4299;42.202;24.736;2023-02-20T11:47:07;100022.31;;;17.26;23.78
8523;BME280;4299;42.202;24.736;2023-02-20T11:49:34;100043.75;;;17.26;24.72
8523;BME280;4299;42.202;24.736;2023-02-20T11:52:07;100024.81;;;17.40;24.20
8523;BME280;4299;42.202;24.736;2023-02-20T11:54:35;100042.13;;;17.47;24.13
8523;BME280;4299;42.202;24.736;2023-02-20T11:57:05;100046.22;;;17.29;24.25
8523;BME280;4299;42.202;24.736;2023-02-20T11:59:44;100042.03;;;17.25;24.58
8523;BME280;4299;42.202;24.736;2023-02-20T12:02:22;100023.53;;;17.22;24.56
8523;BME280;4299;42.202;24.736;2023-02-20T12:05:05;100033.09;;;17.37;24.13
8523;BME280;4299;42.202;24.736;2023-02-20T12:07:35;100029.19;;;17.41;24.21
8523;BME280;4299;42.202;24.736;2023-02-20T12:10:10;100024.81;;;17.40;24.01
8523;BME280;4299;42.202;24.736;2023-02-20T12:12:42;100013.38;;;17.38;23.93
8523;BME280;4299;42.202;24.736;2023-02-20T12:15:12;100036.00;;;17.34;24.45
8523;BME280;4299;42.202;24.736;2023-02-20T12:17:49;100015.78;;;17.41;24.41
8523;BME280;4299;42.202;24.736;2023-02-20T12:20:23;100032.75;;;17.42;24.32
8523;BME280;4299;42.202;24.736;2023-02-20T12:22:59;100047.56;;;17.35;24.58
8523;BME280;4299;42.202;24.736;2023-02-20T12:25:30;100028.22;;;17.42;24.48
8523;BME280;4299;42.202;24.736;2023-02-20T12:28:08;100030.25;;;17.28;24.33
8523;BME280;4299;42.202;24.736;2023-02-20T12:30:46;100011.56;;;17.15;23.93
8523;BME280;4299;42.202;24.736;2023-02-20T12:33:26;100036.63;;;17.14;23.96
8523;BME280;4299;42.202;24.736;2023-02-20T12:36:04;100033.72;;;17.17;24.53
8523;BME280;4299;42.202;24.736;2023-02-20T12:38:40;100032.03;;;17.16;24.26
8523;BME280;4299;42.202;24.736;2023-02-20T12:41:21;100021.84;;;17.32;24.53
8523;BME280;4299;42.202;24.736;2023-02-20T12:44:02;100023.22;;;17.38;24.50
8523;BME280;4299;42.202;24.736;2023-02-20T12:46:37;100027.75;;;17.48;24.38
8523;BME280;4299;42.202;24.736;2023-02-20T12:49:18;100029.09;;;17.67;23.96
8523;BME280;4299;42.202;24.736;2023-02-20T12:51:53;100029.00;;;17.56;24.31
8523;BME280;4299;42.202;24.736;2023-02-20T12:54:31;100013.63;;;17.46;24.38
8523;BME280;4299;42.202;24.736;2023-02-20T12:57:12;100008.03;;;17.49;25.24
8523;BME280;4299;42.202;24.736;2023-02-20T12:59:44;100026.69;;;17.51;24.30
8523;BME280;4299;42.202;24.736;2023-02-20T13:02:16;100020.22;;;17.53;24.54
8523;BME280;4299;42.202;24.736;2023-02-20T13:04:46;100025.13;;;17.60;24.50
8523;BME280;4299;42.202;24.736;2023-02-20T13:07:15;100017.41;;;17.68;24.28
8523;BME280;4299;42.202;24.736;2023-02-20T13:09:43;100022.91;;;17.53;24.73
8523;BME280;4299;42.202;24.736;2023-02-20T13:12:12;100020.94;;;17.44;24.67
8523;BME280;4299;42.202;24.736;2023-02-20T13:14:47;100018.53;;;17.52;25.12
8523;BME280;4299;42.202;24.736;2023-02-20T13:17:18;100011.78;;;17.71;24.45
8523;BME280;4299;42.202;24.736;2023-02-20T13:19:49;100015.28;;;17.60;24.30
8523;BME280;4299;42.202;24.736;2023-02-20T13:22:20;100019.31;;;17.66;24.80
8523;BME280;4299;42.202;24.736;2023-02-20T13:24:47;100029.63;;;17.59;24.53